NCAR-RAP Real-Time Weather Data

Output produced by METARs form (31 July 2015  13:19 UTC)
found at http://weather.rap.ucar.edu/surface/
 
Conditions at: KALB observed 31 July 2015  12:51 UTC
Temperature: 24.4°C (76°F)
Dewpoint: 16.1°C (61°F) [RH = 60%]
Pressure (altimeter): 29.85 inches Hg (1010.9 mb)
[Sea-level pressure: 1010.5 mb]
Winds: from the W (260 degrees) at 12 MPH (10 knots; 5.2 m/s)
Visibility: 10 or more miles (16+ km)
Ceiling: at least 12,000 feet AGL
Clouds: few clouds at 3000 feet AGL
Present Weather: no significant weather observed at this time
KALB 311251Z 26010KT 10SM FEW030 24/16 A2985 RMK AO2 SLP105 T02440161

Conditions at: KALB observed 31 July 2015  11:51 UTC
Temperature: 22.8°C (73°F)
Dewpoint: 15.0°C (59°F) [RH = 61%]
Pressure (altimeter): 29.85 inches Hg (1010.9 mb)
[Sea-level pressure: 1010.5 mb]
Winds: from the W (260 degrees) at 10 MPH (9 knots; 4.7 m/s)
Visibility: 10 or more miles (16+ km)
Ceiling: at least 12,000 feet AGL
Clouds: sky clear below 12,000 feet AGL
Present Weather: no significant weather observed at this time
KALB 311151Z 26009KT 10SM CLR 23/15 A2985 RMK AO2 SLP105 70030 T02280150 10228 20189 53012

Conditions at: KALB observed 31 July 2015  10:51 UTC
Temperature: 21.1°C (70°F)
Dewpoint: 15.0°C (59°F) [RH = 68%]
Pressure (altimeter): 29.83 inches Hg (1010.2 mb)
[Sea-level pressure: 1010.0 mb]
Winds: from the W (260 degrees) at 10 MPH (9 knots; 4.7 m/s)
Visibility: 10 or more miles (16+ km)
Ceiling: at least 12,000 feet AGL
Clouds: few clouds at 8000 feet AGL
Present Weather: no significant weather observed at this time
KALB 311051Z 26009KT 10SM FEW080 21/15 A2983 RMK AO2 SLP100 T02110150

Conditions at: KALB observed 31 July 2015  09:51 UTC
Temperature: 20.6°C (69°F)
Dewpoint: 14.4°C (58°F) [RH = 68%]
Pressure (altimeter): 29.82 inches Hg (1009.9 mb)
[Sea-level pressure: 1009.6 mb]
Winds: from the WSW (250 degrees) at 8 MPH (7 knots; 3.6 m/s)
Visibility: 10 or more miles (16+ km)
Ceiling: at least 12,000 feet AGL
Clouds: few clouds at 8000 feet AGL
Present Weather: no significant weather observed at this time
KALB 310951Z 25007KT 10SM FEW080 21/14 A2982 RMK AO2 SLP096 T02060144

Conditions at: KALB observed 31 July 2015  08:51 UTC
Temperature: 20.0°C (68°F)
Dewpoint: 15.0°C (59°F) [RH = 73%]
Pressure (altimeter): 29.81 inches Hg (1009.6 mb)
[Sea-level pressure: 1009.3 mb]
Winds: from the W (260 degrees) at 8 MPH (7 knots; 3.6 m/s)
Visibility: 10 or more miles (16+ km)
Ceiling: at least 12,000 feet AGL
Clouds: few clouds at 8000 feet AGL
Present Weather: no significant weather observed at this time
KALB 310851Z 26007KT 10SM FEW080 20/15 A2981 RMK AO2 SLP093 T02000150 58002

Conditions at: KALB observed 31 July 2015  07:51 UTC
Temperature: 20.6°C (69°F)
Dewpoint: 15.6°C (60°F) [RH = 73%]
Pressure (altimeter): 29.81 inches Hg (1009.6 mb)
[Sea-level pressure: 1009.4 mb]
Winds: from the W (260 degrees) at 7 MPH (6 knots; 3.1 m/s)
Visibility: 10 or more miles (16+ km)
Ceiling: at least 12,000 feet AGL
Clouds: scattered clouds at 8000 feet AGL
Present Weather: no significant weather observed at this time
KALB 310751Z 26006KT 10SM SCT080 21/16 A2981 RMK AO2 SLP094 T02060156

Conditions at: KALB observed 31 July 2015  06:51 UTC
Temperature: 18.9°C (66°F)
Dewpoint: 16.1°C (61°F) [RH = 84%]
Pressure (altimeter): 29.82 inches Hg (1009.9 mb)
[Sea-level pressure: 1009.6 mb]
Winds: from the WSW (240 degrees) at 3 MPH (3 knots; 1.6 m/s)
Visibility: 10 or more miles (16+ km)
Ceiling: at least 12,000 feet AGL
Clouds: few clouds at 6500 feet AGL
few clouds at 8000 feet AGL
Present Weather: no significant weather observed at this time
KALB 310651Z 24003KT 10SM FEW065 FEW080 19/16 A2982 RMK AO2 SLP096 T01890161

Conditions at: KALB observed 31 July 2015  05:51 UTC
Temperature: 20.0°C (68°F)
Dewpoint: 16.1°C (61°F) [RH = 78%]
Pressure (altimeter): 29.82 inches Hg (1009.9 mb)
[Sea-level pressure: 1009.5 mb]
Winds: from the SW (230 degrees) at 5 MPH (4 knots; 2.1 m/s)
Visibility: 10 or more miles (16+ km)
Ceiling: at least 12,000 feet AGL
Clouds: scattered clouds at 8000 feet AGL
Present Weather: no significant weather observed at this time
KALB 310551Z 23004KT 10SM SCT080 20/16 A2982 RMK AO2 SLP095 T02000161 10267 20194 58003

Conditions at: KALB observed 31 July 2015  04:51 UTC
Temperature: 21.1°C (70°F)
Dewpoint: 16.7°C (62°F) [RH = 76%]
Pressure (altimeter): 29.82 inches Hg (1009.9 mb)
[Sea-level pressure: 1009.8 mb]
Winds: from the SW (220 degrees) at 3 MPH (3 knots; 1.6 m/s)
Visibility: 10 or more miles (16+ km)
Ceiling: at least 12,000 feet AGL
Clouds: few clouds at 6500 feet AGL
scattered clouds at 8000 feet AGL
Present Weather: no significant weather observed at this time
KALB 310451Z 22003KT 10SM FEW065 SCT080 21/17 A2982 RMK AO2 SLP098 T02110167 403110206

Conditions at: KALB observed 31 July 2015  03:51 UTC
Temperature: 20.6°C (69°F)
Dewpoint: 16.7°C (62°F) [RH = 78%]
Pressure (altimeter): 29.82 inches Hg (1009.9 mb)
[Sea-level pressure: 1009.8 mb]
Winds: from the WSW (240 degrees) at 6 MPH (5 knots; 2.6 m/s)
Visibility: 10 or more miles (16+ km)
Ceiling: at least 12,000 feet AGL
Clouds: few clouds at 7000 feet AGL
scattered clouds at 8500 feet AGL
Present Weather: no significant weather observed at this time
KALB 310351Z 24005KT 10SM FEW070 SCT085 21/17 A2982 RMK AO2 SLP098 SCT V BKN T02060167

Conditions at: KALB observed 31 July 2015  02:51 UTC
Temperature: 21.1°C (70°F)
Dewpoint: 16.1°C (61°F) [RH = 73%]
Pressure (altimeter): 29.83 inches Hg (1010.2 mb)
[Sea-level pressure: 1009.9 mb]
Winds: from the WSW (240 degrees) at 5 MPH (4 knots; 2.1 m/s)
Visibility: 10 or more miles (16+ km)
Ceiling: at least 12,000 feet AGL
Clouds: few clouds at 8000 feet AGL
Present Weather: no significant weather observed at this time
KALB 310251Z 24004KT 10SM FEW080 21/16 A2983 RMK AO2 SLP099 T02110161 50010

Conditions at: KALB observed 31 July 2015  01:51 UTC
Temperature: 22.2°C (72°F)
Dewpoint: 16.1°C (61°F) [RH = 68%]
Pressure (altimeter): 29.83 inches Hg (1010.2 mb)
[Sea-level pressure: 1010.0 mb]
Winds: from the WSW (240 degrees) at 5 MPH (4 knots; 2.1 m/s)
Visibility: 10 or more miles (16+ km)
Ceiling: at least 12,000 feet AGL
Clouds: few clouds at 7500 feet AGL
few clouds at 27000 feet AGL
Present Weather: no significant weather observed at this time
KALB 310151Z 24004KT 10SM FEW075 FEW270 22/16 A2983 RMK AO2 SLP100 T02220161